Keystone, South Dakota
Current Conditions -  °F | °C
As of 8:53 PM on Tuesday 25 Nov 2014 (Local Time) from KCUT Reporting Station
Overcast Overcast  
Wind Chill: 16°   Ceiling: 3900
Heat Index: 27°   Visibility: 10mi
Dew Point: 15°   Wind: 14mph
Humidity: 61%   Direction: 320°NW
Pressure: 29.89"   Gusts: 32mph
Location:  43.9°N, 103.42°W
Report Text: KCUT 260353Z AUTO 32012G28KT 10SM FEW032 BKN039 OVC120 M03/M09 A2989 RMK AO2 PK WND 34028/0345 SNE17 SLP159 P0000 T10281094
Loading
Personal Weather Stations






























Interactive Weather Map New forecast layout! Learn more

10-Day Weather Forecast

Advertisements
Track Severe Weather on mobile